Rockbridge, Illinois
Current Conditions -  °F | °C
As of 1:54 PM on Friday 31 Oct 2014 (Local Time) from KSET Reporting Station
Few Clouds Few Clouds  
Wind Chill: 40°   Ceiling: Unl
Heat Index: 46°   Visibility: 10mi
Dew Point: 26°   Wind: 14mph
Humidity: 46%   Direction: 340°NNW
Pressure: 30.3"   Gusts: NA
Location:  39.27°N, 90.2°W
Report Text: KSET 311854Z AUTO 34012KT 10SM FEW049 08/M03 A3030 RMK AO2 PK WND 35028/1758 SLP259 T00781033
Loading
Personal Weather Stations






























Interactive Weather Map
Tropical Storm Tracking
New forecast layout! Learn more

10-Day Weather Forecast

Advertisements
Track Severe Weather on mobile